Hlavní strana
METAR-TAF:

METAR-TAF

Letiště :

Annaba, Alžírsko

zeměpisná šířka: 36-50N, zeměpisná délka: 007-49E, výška: 4 m

Aktuální stav počasí

Zpráva byla vytvořena před 21 minutami, v 22:00 UTC
Západní vítr 3 kt
Teplota 12°C
Vlhkost vzduchu 94%
Tlak 1022 hPa
Viditelnost: 6000 m

METAR: DABB 282200Z 28003KT 6000 NSC 12/11 Q1022

Čas: 23:21 (22:21 UTC)

Předpověď počasí

Zpráva byla vytvořena před 5 hodinami a 21 minutami, v 17:00 UTC
Předpověď platná od 28 v 18 UTC do 01 v 18 UTC
Severoseverovýchodní vítr 8 kt
Viditelnost: 8000 m
Skoro jasno ve výšce 2000 ft
Pravděpodobnost 30% :
Dočasný
od 28 v 20 UTC do 01 v 03 UTC
Viditelnost: 2000 m
Polojasno ve výšce 800 ft
kouřmo
Změna
od 01 v 10 UTC do 01 v 12 UTC
Východní vítr 14 kt

TAF: DABB 281700Z 2818/0118 02008KT 8000 FEW020 PROB30 TEMPO 2820/0103 2000 BR SCT008 BECMG 0110/0112 08014KT

Stav a předpovědi počasí z více než 4 000 letišť (zprávy METAR a TAF).

Červené a žluté tečky na mapě představují dostupné meteorologické stanice.

Když kurzor umístíte na tečku, zobrazí se název stanice.

Pak kliknutím zobrazíte stav a předpověď počasí.

Chcete-li změnit mapu, kliknutím na zelené tlačítko se znaménkem +mapu přiblížíte, kliknutím na zelené tlačítko se znaménkem – mapu oddálíte a kliknutím na zelené šipky přejdete na sousední mapy.


METAR-TAF: